Time;durP1;ratioP1;P1;durP2;ratioP2;P2;SDS_P1;SDS_P2;PMS_P1;PMS_P2;Temp;Humidity;BMP_temperature;BMP_pressure;BME280_temperature;BME280_humidity;BME280_pressure;Samples;Min_cycle;Max_cycle;Signal;HPM_P1;HPM_P2
2023/12/18 00:01:47;;;;;;;;;;;;;;;4.59;100.00;103283.06;5010366;28;20019;-71
2023/12/18 00:04:13;;;;;;;;;;;;;;;4.57;100.00;103278.69;5010413;28;20371;-71
2023/12/18 00:06:38;;;;;;;;;;;;;;;4.55;100.00;103284.00;4996432;28;20722;-70
2023/12/18 00:09:03;;;;;;;;;;;;;;;4.61;100.00;103278.59;5025030;28;20404;-71
2023/12/18 00:11:28;;;;;;;;;;;;;;;4.61;100.00;103281.25;5010679;28;20385;-71
2023/12/18 00:13:54;;;;;;;;;;;;;;;4.63;100.00;103278.59;5016666;28;19929;-70
2023/12/18 00:16:19;;;;;;;;;;;;;;;4.69;100.00;103275.84;5015107;28;19925;-72
2023/12/18 00:18:44;;;;;;;;;;;;;;;4.72;100.00;103266.94;5004758;28;19948;-71
2023/12/18 00:21:09;;;;;;;;;;;;;;;4.74;100.00;103252.69;5004249;28;20165;-71
2023/12/18 00:23:34;;;;;;;;;;;;;;;4.72;100.00;103253.63;5004321;28;19928;-72
2023/12/18 00:26:00;;;;;;;;;;;;;;;4.70;100.00;103250.97;4991076;28;19928;-72
2023/12/18 00:28:25;;;;;;;;;;;;;;;4.76;100.00;103244.72;5002549;28;19921;-71
2023/12/18 00:30:50;;;;;;;;;;;;;;;4.79;100.00;103245.53;5006258;28;19925;-72
2023/12/18 00:33:15;;;;;;;;;;;;;;;4.77;100.00;103244.66;4994576;28;20551;-72
2023/12/18 00:35:41;;;;;;;;;;;;;;;4.77;100.00;103233.13;5004181;28;20148;-70
2023/12/18 00:38:06;;;;;;;;;;;;;;;4.75;100.00;103225.19;5008955;28;19936;-71
2023/12/18 00:40:31;;;;;;;;;;;;;;;4.74;100.00;103222.56;4993892;28;20514;-71
2023/12/18 00:42:56;;;;;;;;;;;;;;;4.80;100.00;103231.31;4997612;28;20122;-72
2023/12/18 00:45:22;;;;;;;;;;;;;;;4.86;100.00;103229.47;5007132;28;19928;-70
2023/12/18 00:47:47;;;;;;;;;;;;;;;4.83;100.00;103233.03;5008519;28;20020;-71
2023/12/18 00:50:12;;;;;;;;;;;;;;;4.83;100.00;103221.53;5007682;28;19932;-72
2023/12/18 00:52:38;;;;;;;;;;;;;;;4.79;100.00;103226.91;5004905;28;19921;-72
2023/12/18 00:55:03;;;;;;;;;;;;;;;4.78;100.00;103221.59;5016322;28;19926;-70
2023/12/18 00:57:28;;;;;;;;;;;;;;;4.88;100.00;103223.22;4997689;28;19921;-72
2023/12/18 00:59:53;;;;;;;;;;;;;;;4.92;100.00;103221.38;5003726;28;19956;-72
2023/12/18 01:02:19;;;;;;;;;;;;;;;4.86;100.00;103222.34;5004836;28;20023;-71
2023/12/18 01:04:44;;;;;;;;;;;;;;;4.89;100.00;103226.78;5002458;28;19926;-72
2023/12/18 01:07:09;;;;;;;;;;;;;;;4.85;100.00;103227.72;5005939;28;19925;-72
2023/12/18 01:09:34;;;;;;;;;;;;;;;4.95;100.00;103229.31;5001811;28;20020;-71
2023/12/18 01:11:59;;;;;;;;;;;;;;;4.89;100.00;103229.44;5013667;28;19921;-70
2023/12/18 01:14:25;;;;;;;;;;;;;;;4.78;100.00;103240.22;4988580;28;19929;-70
2023/12/18 01:16:52;;;;;;;;;;;;;;;4.79;100.00;103234.00;4990396;28;19948;-71
2023/12/18 01:19:17;;;;;;;;;;;;;;;4.78;100.00;103230.47;5003786;28;19984;-71
2023/12/18 01:21:43;;;;;;;;;;;;;;;4.74;100.00;103225.22;4987502;28;20474;-71
2023/12/18 01:24:08;;;;;;;;;;;;;;;4.77;100.00;103226.03;5004303;28;20320;-70
2023/12/18 01:26:35;;;;;;;;;;;;;;;4.90;100.00;103225.88;5003925;28;19929;-72
2023/12/18 01:29:01;;;;;;;;;;;;;;;4.83;100.00;103234.84;4986380;28;20274;-72
2023/12/18 01:31:26;;;;;;;;;;;;;;;4.71;100.00;103227.91;5002650;28;19921;-72
2023/12/18 01:33:52;;;;;;;;;;;;;;;4.71;100.00;103222.59;5008349;28;19925;-72
2023/12/18 01:36:17;;;;;;;;;;;;;;;4.58;100.00;103192.63;4992775;28;19924;-70
2023/12/18 01:38:42;;;;;;;;;;;;;;;4.47;100.00;103206.94;5010359;28;19921;-71
2023/12/18 01:41:08;;;;;;;;;;;;;;;4.65;100.00;103226.22;5005715;28;19921;-72
2023/12/18 01:43:34;;;;;;;;;;;;;;;4.65;100.00;103227.09;4994947;28;19928;-70
2023/12/18 01:45:59;;;;;;;;;;;;;;;4.60;100.00;103225.41;5006629;28;19921;-71
2023/12/18 01:48:25;;;;;;;;;;;;;;;4.66;100.00;103225.31;4994749;28;20310;-72
2023/12/18 01:50:51;;;;;;;;;;;;;;;4.67;100.00;103224.41;5009633;28;20349;-72
2023/12/18 01:53:16;;;;;;;;;;;;;;;4.57;100.00;103223.66;4990272;28;20428;-71
2023/12/18 01:55:42;;;;;;;;;;;;;;;4.56;100.00;103224.56;5008030;28;20168;-72
2023/12/18 01:58:07;;;;;;;;;;;;;;;4.67;100.00;103227.06;5007090;28;19921;-72
2023/12/18 02:00:32;;;;;;;;;;;;;;;4.64;100.00;103232.44;4993301;28;20233;-72
2023/12/18 02:02:58;;;;;;;;;;;;;;;4.68;100.00;103227.97;5009260;28;20351;-71
2023/12/18 02:05:23;;;;;;;;;;;;;;;4.53;100.00;103191.81;4993359;28;20034;-72
2023/12/18 02:07:48;;;;;;;;;;;;;;;4.86;100.00;103218.81;5005617;28;20454;-69
2023/12/18 02:10:13;;;;;;;;;;;;;;;4.69;100.00;103222.59;5013775;28;20421;-71
2023/12/18 02:12:38;;;;;;;;;;;;;;;4.82;100.00;103212.66;4991144;28;19925;-71
2023/12/18 02:15:04;;;;;;;;;;;;;;;4.72;100.00;103211.91;5011848;28;19925;-72
2023/12/18 02:17:29;;;;;;;;;;;;;;;4.74;100.00;103202.13;4991135;28;21124;-72
2023/12/18 02:20:07;;;;;;;;;;;;;;;4.76;100.00;103199.47;5008835;28;19921;-72
2023/12/18 02:22:51;;;;;;;;;;;;;;;4.75;100.00;103197.69;5009396;28;20182;-71
2023/12/18 02:25:17;;;;;;;;;;;;;;;4.73;100.00;103192.38;4991811;28;19921;-72
2023/12/18 02:27:43;;;;;;;;;;;;;;;4.80;100.00;103201.16;5005006;28;19978;-69
2023/12/18 02:30:12;;;;;;;;;;;;;;;4.90;100.00;103193.91;4995546;28;19964;-72
2023/12/18 02:32:38;;;;;;;;;;;;;;;4.76;100.00;103194.13;5008747;28;19925;-71
2023/12/18 02:35:04;;;;;;;;;;;;;;;4.87;100.00;103189.50;4995220;28;19925;-72
2023/12/18 02:37:29;;;;;;;;;;;;;;;4.86;100.00;103197.53;4998346;28;19979;-72
2023/12/18 02:39:54;;;;;;;;;;;;;;;4.78;100.00;103198.53;5011857;28;20353;-72
2023/12/18 02:42:20;;;;;;;;;;;;;;;4.49;100.00;103145.75;5009564;28;19945;-71
2023/12/18 02:44:45;;;;;;;;;;;;;;;4.83;100.00;103189.59;5009743;28;20318;-71
2023/12/18 02:47:10;;;;;;;;;;;;;;;4.84;100.00;103189.56;5013182;28;20619;-72
2023/12/18 02:49:35;;;;;;;;;;;;;;;4.82;100.00;103185.16;5009174;28;20565;-72
2023/12/18 02:52:00;;;;;;;;;;;;;;;4.83;100.00;103186.94;5009010;28;20446;-72
2023/12/18 02:54:26;;;;;;;;;;;;;;;4.88;100.00;103191.28;5006276;28;20012;-72
2023/12/18 02:56:51;;;;;;;;;;;;;;;4.95;100.00;103190.28;5006699;28;20004;-70
2023/12/18 02:59:16;;;;;;;;;;;;;;;4.88;100.00;103191.28;5014094;28;20007;-71
2023/12/18 03:01:41;;;;;;;;;;;;;;;4.89;100.00;103194.81;5014902;28;19921;-72
2023/12/18 03:04:06;;;;;;;;;;;;;;;4.96;100.00;103191.13;5009535;28;19990;-72
2023/12/18 03:06:32;;;;;;;;;;;;;;;4.95;100.00;103179.63;5008830;28;20252;-71
2023/12/18 03:08:57;;;;;;;;;;;;;;;4.98;100.00;103181.34;5014937;28;20556;-71
2023/12/18 03:11:22;;;;;;;;;;;;;;;5.02;100.00;103174.19;5014102;28;20283;-71
2023/12/18 03:13:47;;;;;;;;;;;;;;;5.05;100.00;103175.00;5008328;28;19924;-72
2023/12/18 03:16:13;;;;;;;;;;;;;;;5.05;100.00;103182.09;5007352;28;19968;-71
2023/12/18 03:18:38;;;;;;;;;;;;;;;5.21;100.00;103172.97;5007548;28;20277;-72
2023/12/18 03:21:03;;;;;;;;;;;;;;;5.25;100.00;103180.00;5025715;28;19921;-71
2023/12/18 03:23:29;;;;;;;;;;;;;;;5.06;100.00;103181.22;5013175;28;19916;-71
2023/12/18 03:25:54;;;;;;;;;;;;;;;5.06;100.00;103179.44;5010598;28;19924;-70
2023/12/18 03:28:19;;;;;;;;;;;;;;;4.98;100.00;103164.50;5005680;28;19982;-71
2023/12/18 03:30:44;;;;;;;;;;;;;;;5.01;100.00;103183.97;4989034;28;19925;-71
2023/12/18 03:33:10;;;;;;;;;;;;;;;5.11;100.00;103171.34;5002911;28;20016;-72
2023/12/18 03:35:35;;;;;;;;;;;;;;;5.04;100.00;103172.38;5008749;28;20408;-71
2023/12/18 03:38:00;;;;;;;;;;;;;;;5.03;100.00;103168.84;5008737;28;19920;-70
2023/12/18 03:40:25;;;;;;;;;;;;;;;5.13;100.00;103174.88;5007973;28;20124;-72
2023/12/18 03:42:50;;;;;;;;;;;;;;;5.03;100.00;103174.16;5007840;28;20164;-72
2023/12/18 03:45:16;;;;;;;;;;;;;;;5.03;100.00;103174.16;5009911;28;19927;-71
2023/12/18 03:47:41;;;;;;;;;;;;;;;5.04;100.00;103175.91;5001466;28;20239;-71
2023/12/18 03:50:06;;;;;;;;;;;;;;;5.04;100.00;103173.25;5010958;28;19924;-71
2023/12/18 03:52:32;;;;;;;;;;;;;;;5.02;100.00;103174.19;5007859;28;19928;-72
2023/12/18 03:54:57;;;;;;;;;;;;;;;5.02;100.00;103171.53;5008234;28;19936;-70
2023/12/18 03:57:24;;;;;;;;;;;;;;;4.93;100.00;103173.44;5004336;28;19924;-71
2023/12/18 03:59:49;;;;;;;;;;;;;;;4.99;100.00;103174.25;4984478;28;20574;-72
2023/12/18 04:02:14;;;;;;;;;;;;;;;4.95;100.00;103184.06;5005406;28;19925;-70
2023/12/18 04:04:39;;;;;;;;;;;;;;;5.00;100.00;103176.88;5009511;28;19951;-71
2023/12/18 04:07:04;;;;;;;;;;;;;;;4.93;100.00;103181.44;5019440;28;19952;-71
2023/12/18 04:09:30;;;;;;;;;;;;;;;5.00;100.00;103171.53;5003184;28;19987;-72
2023/12/18 04:11:55;;;;;;;;;;;;;;;5.05;100.00;103171.47;5002940;28;19987;-72
2023/12/18 04:14:20;;;;;;;;;;;;;;;5.05;100.00;103174.13;5003959;28;20290;-72
2023/12/18 04:16:45;;;;;;;;;;;;;;;5.04;100.00;103167.94;5008346;28;19968;-72
2023/12/18 04:19:11;;;;;;;;;;;;;;;5.02;100.00;103168.88;5011172;28;20019;-72
2023/12/18 04:21:36;;;;;;;;;;;;;;;5.11;100.00;103163.38;4992701;28;19921;-71
2023/12/18 04:24:01;;;;;;;;;;;;;;;5.11;100.00;103171.34;4999095;28;19921;-70
2023/12/18 04:26:27;;;;;;;;;;;;;;;5.08;100.00;103163.41;5007582;28;20835;-71
2023/12/18 04:28:52;;;;;;;;;;;;;;;5.11;100.00;103166.03;5009398;28;19928;-72
2023/12/18 04:31:18;;;;;;;;;;;;;;;5.14;100.00;103168.66;5010152;28;19927;-72
2023/12/18 04:33:44;;;;;;;;;;;;;;;5.17;100.00;103176.59;4993258;28;20053;-74
2023/12/18 04:36:09;;;;;;;;;;;;;;;5.22;100.00;103168.50;4991493;28;20059;-70
2023/12/18 04:38:34;;;;;;;;;;;;;;;5.15;100.00;103165.06;5009496;28;20029;-71
2023/12/18 04:40:59;;;;;;;;;;;;;;;5.10;100.00;103167.84;5004038;28;19928;-71
2023/12/18 04:43:24;;;;;;;;;;;;;;;5.07;100.00;103165.22;5011430;28;19963;-70
2023/12/18 04:45:50;;;;;;;;;;;;;;;5.12;100.00;103158.94;4994676;28;20004;-70
2023/12/18 04:48:15;;;;;;;;;;;;;;;5.13;100.00;103153.56;4997092;28;19921;-71
2023/12/18 04:50:40;;;;;;;;;;;;;;;5.19;100.00;103160.56;5007335;28;19924;-71
2023/12/18 04:53:05;;;;;;;;;;;;;;;5.27;100.00;103163.97;5009896;28;19927;-72
2023/12/18 04:55:30;;;;;;;;;;;;;;;5.15;100.00;103157.09;5011223;28;19925;-71
2023/12/18 04:57:56;;;;;;;;;;;;;;;4.94;100.00;103132.59;5010258;28;21069;-72
2023/12/18 05:00:21;;;;;;;;;;;;;;;5.13;100.00;103155.38;4991542;28;19925;-71
2023/12/18 05:02:47;;;;;;;;;;;;;;;5.13;100.00;103153.56;4994144;28;19938;-72
2023/12/18 05:05:12;;;;;;;;;;;;;;;5.26;100.00;103148.91;4993465;28;20232;-72
2023/12/18 05:07:37;;;;;;;;;;;;;;;5.20;100.00;103162.31;5013239;28;20004;-71
2023/12/18 05:10:02;;;;;;;;;;;;;;;5.16;100.00;103160.66;4994965;28;19940;-71
2023/12/18 05:12:28;;;;;;;;;;;;;;;5.25;100.00;103157.81;4993557;28;19967;-69
2023/12/18 05:14:53;;;;;;;;;;;;;;;5.22;100.00;103157.84;5005781;28;19925;-71
2023/12/18 05:17:18;;;;;;;;;;;;;;;5.13;100.00;103148.25;5012676;28;20004;-72
2023/12/18 05:19:43;;;;;;;;;;;;;;;5.18;100.00;103156.16;5019847;28;20339;-70
2023/12/18 05:22:09;;;;;;;;;;;;;;;5.14;100.00;103149.16;5002921;28;20462;-71
2023/12/18 05:24:34;;;;;;;;;;;;;;;5.14;100.00;103142.00;5015296;28;20485;-72
2023/12/18 05:26:59;;;;;;;;;;;;;;;5.19;100.00;103152.56;5012068;28;20414;-72
2023/12/18 05:29:24;;;;;;;;;;;;;;;5.17;100.00;103144.63;5011398;28;20383;-69
2023/12/18 05:31:49;;;;;;;;;;;;;;;5.14;100.00;103154.47;5012164;28;20419;-70
2023/12/18 05:34:15;;;;;;;;;;;;;;;5.14;100.00;103146.47;4993939;28;19925;-71
2023/12/18 05:36:40;;;;;;;;;;;;;;;5.18;100.00;103153.47;5004658;28;20295;-72
2023/12/18 05:39:06;;;;;;;;;;;;;;;5.08;100.00;103150.09;5011621;28;20577;-69
2023/12/18 05:41:31;;;;;;;;;;;;;;;5.12;100.00;103149.16;5017206;28;19976;-72
2023/12/18 05:43:56;;;;;;;;;;;;;;;5.19;100.00;103156.13;5006319;28;20446;-72
2023/12/18 05:46:21;;;;;;;;;;;;;;;5.23;100.00;103146.28;4986741;28;20505;-72
2023/12/18 05:48:46;;;;;;;;;;;;;;;5.18;100.00;103156.16;5005311;28;20376;-71
2023/12/18 05:51:21;;;;;;;;;;;;;;;5.10;100.00;103156.28;5003812;28;20019;-69
2023/12/18 05:53:46;;;;;;;;;;;;;;;5.14;100.00;103147.34;5018773;28;19935;-72
2023/12/18 05:56:12;;;;;;;;;;;;;;;5.29;100.00;103148.00;5003112;28;19925;-72
2023/12/18 05:58:37;;;;;;;;;;;;;;;5.06;100.00;103151.91;5008488;28;19928;-70
2023/12/18 06:01:02;;;;;;;;;;;;;;;5.16;100.00;103144.66;5005992;28;19921;-72
2023/12/18 06:03:27;;;;;;;;;;;;;;;5.09;100.00;103152.75;5018867;28;19969;-71
2023/12/18 06:05:52;;;;;;;;;;;;;;;5.21;100.00;103143.66;4994662;28;19957;-71
2023/12/18 06:08:18;;;;;;;;;;;;;;;5.04;100.00;103151.06;5010606;28;20193;-70
2023/12/18 06:10:43;;;;;;;;;;;;;;;4.98;100.00;103148.53;5007146;28;19921;-70
2023/12/18 06:13:08;;;;;;;;;;;;;;;4.91;100.00;103148.63;5014314;28;19921;-70
2023/12/18 06:15:33;;;;;;;;;;;;;;;4.88;100.00;103151.34;5010393;28;19941;-71
2023/12/18 06:17:58;;;;;;;;;;;;;;;4.95;100.00;103152.09;5011665;28;20182;-71
2023/12/18 06:20:24;;;;;;;;;;;;;;;4.87;100.00;103141.59;5009316;28;20016;-69
2023/12/18 06:22:49;;;;;;;;;;;;;;;4.87;100.00;103138.06;5012329;28;19923;-70
2023/12/18 06:25:14;;;;;;;;;;;;;;;5.00;100.00;103149.38;5007892;28;19921;-70
2023/12/18 06:27:39;;;;;;;;;;;;;;;5.04;100.00;103138.63;5021038;28;19940;-70
2023/12/18 06:30:05;;;;;;;;;;;;;;;4.98;100.00;103141.41;5015086;28;19917;-73
2023/12/18 06:32:30;;;;;;;;;;;;;;;4.94;100.00;103153.91;5009602;28;19996;-71
2023/12/18 06:34:55;;;;;;;;;;;;;;;4.92;100.00;103154.81;5015607;28;19967;-72
2023/12/18 06:37:21;;;;;;;;;;;;;;;4.86;100.00;103123.00;5012407;28;19925;-72
2023/12/18 06:39:46;;;;;;;;;;;;;;;4.95;100.00;103146.78;5011390;28;20766;-70
2023/12/18 06:42:11;;;;;;;;;;;;;;;4.89;100.00;103144.25;4997832;28;19932;-70
2023/12/18 06:44:36;;;;;;;;;;;;;;;4.93;100.00;103140.59;4997794;28;19921;-72
2023/12/18 06:47:02;;;;;;;;;;;;;;;4.94;100.00;103142.34;5017641;28;19921;-71
2023/12/18 06:49:27;;;;;;;;;;;;;;;4.92;100.00;103142.41;5017193;28;20477;-70
2023/12/18 06:51:52;;;;;;;;;;;;;;;4.99;100.00;103139.63;5013337;28;19960;-72
2023/12/18 06:54:17;;;;;;;;;;;;;;;4.98;100.00;103132.56;5018223;28;20039;-70
2023/12/18 06:56:43;;;;;;;;;;;;;;;5.05;100.00;103137.75;4995626;28;19968;-72
2023/12/18 06:59:08;;;;;;;;;;;;;;;5.23;100.00;103140.97;4994874;28;20016;-71
2023/12/18 07:01:33;;;;;;;;;;;;;;;5.05;100.00;103148.38;4997928;28;19921;-70
2023/12/18 07:03:58;;;;;;;;;;;;;;;5.08;100.00;103143.00;5009364;28;19924;-70
2023/12/18 07:06:23;;;;;;;;;;;;;;;5.07;100.00;103151.00;5011898;28;20011;-71
2023/12/18 07:08:49;;;;;;;;;;;;;;;5.17;100.00;103152.63;4997489;28;19928;-70
2023/12/18 07:11:14;;;;;;;;;;;;;;;5.13;100.00;103152.72;5007633;28;19928;-71
2023/12/18 07:13:39;;;;;;;;;;;;;;;5.17;100.00;103146.41;5023263;28;19929;-72
2023/12/18 07:16:05;;;;;;;;;;;;;;;5.04;100.00;103146.63;5007850;28;19925;-70
2023/12/18 07:18:30;;;;;;;;;;;;;;;5.08;100.00;103151.00;4993726;28;19925;-70
2023/12/18 07:20:55;;;;;;;;;;;;;;;5.16;100.00;103144.66;4996830;28;19943;-70
2023/12/18 07:23:21;;;;;;;;;;;;;;;5.09;100.00;103149.19;5008427;28;19979;-72
2023/12/18 07:25:46;;;;;;;;;;;;;;;5.08;100.00;103148.34;4992603;28;20162;-70
2023/12/18 07:28:11;;;;;;;;;;;;;;;5.15;100.00;103148.25;5013672;28;20051;-72
2023/12/18 07:30:36;;;;;;;;;;;;;;;5.20;100.00;103155.22;5005453;28;20568;-71
2023/12/18 07:33:02;;;;;;;;;;;;;;;5.21;100.00;103154.31;5012434;28;20123;-71
2023/12/18 07:35:27;;;;;;;;;;;;;;;5.25;100.00;103156.03;5012127;28;19925;-71
2023/12/18 07:37:54;;;;;;;;;;;;;;;5.32;100.00;103159.47;5011175;28;22331;-69
2023/12/18 07:40:19;;;;;;;;;;;;;;;5.41;100.00;103145.06;5013273;28;20011;-74
2023/12/18 07:42:44;;;;;;;;;;;;;;;5.39;100.00;103145.13;5012329;28;20383;-72
2023/12/18 07:45:10;;;;;;;;;;;;;;;5.40;100.00;103151.31;5012220;28;20023;-72
2023/12/18 07:47:37;;;;;;;;;;;;;;;5.23;100.00;103151.63;5021531;28;20422;-70
2023/12/18 07:50:03;;;;;;;;;;;;;;;5.44;100.00;103147.69;5016290;28;19925;-73
2023/12/18 07:52:28;;;;;;;;;;;;;;;5.44;100.00;103145.03;5013481;28;20646;-73
2023/12/18 07:54:53;;;;;;;;;;;;;;;5.31;100.00;103147.03;5017944;28;19987;-71
2023/12/18 07:57:19;;;;;;;;;;;;;;;5.19;100.00;103137.50;5016273;28;20590;-72
2023/12/18 07:59:44;;;;;;;;;;;;;;;5.22;100.00;103137.44;5012258;28;19932;-70
2023/12/18 08:02:09;;;;;;;;;;;;;;;5.09;100.00;103138.56;5014955;28;19971;-70
2023/12/18 08:04:38;;;;;;;;;;;;;;;5.12;100.00;103137.63;5020127;28;20016;-70
2023/12/18 08:07:03;;;;;;;;;;;;;;;5.17;100.00;103138.41;5009493;28;20613;-71
2023/12/18 08:09:28;;;;;;;;;;;;;;;5.22;100.00;103144.53;5012285;28;19928;-70
2023/12/18 08:11:54;;;;;;;;;;;;;;;5.06;100.00;103139.50;5017775;28;19920;-70
2023/12/18 08:14:19;;;;;;;;;;;;;;;5.12;100.00;103130.50;5013617;28;19925;-71
2023/12/18 08:16:44;;;;;;;;;;;;;;;5.25;100.00;103128.50;5016040;28;20376;-70
2023/12/18 08:19:09;;;;;;;;;;;;;;;5.14;100.00;103127.84;5012061;28;19925;-74
2023/12/18 08:21:35;;;;;;;;;;;;;;;5.12;100.00;103129.66;5008604;28;20041;-70
2023/12/18 08:24:00;;;;;;;;;;;;;;;5.13;100.00;103123.41;5014618;28;19921;-72
2023/12/18 08:26:26;;;;;;;;;;;;;;;5.19;100.00;103125.94;5013213;28;20019;-72
2023/12/18 08:28:51;;;;;;;;;;;;;;;5.25;100.00;103133.81;5014412;28;19921;-72
2023/12/18 08:31:16;;;;;;;;;;;;;;;5.17;100.00;103128.66;5014600;28;19936;-72
2023/12/18 08:33:42;;;;;;;;;;;;;;;5.22;100.00;103126.78;5008715;28;19963;-72
2023/12/18 08:36:07;;;;;;;;;;;;;;;5.25;100.00;103126.72;5015465;28;19963;-72
2023/12/18 08:38:33;;;;;;;;;;;;;;;5.30;100.00;103133.75;5015626;28;20011;-70
2023/12/18 08:40:58;;;;;;;;;;;;;;;5.32;100.00;103123.94;5015678;28;19923;-72
2023/12/18 08:43:23;;;;;;;;;;;;;;;5.39;100.00;103121.16;5005515;28;19932;-72
2023/12/18 08:45:48;;;;;;;;;;;;;;;5.36;100.00;103118.53;5007021;28;19928;-72
2023/12/18 08:48:13;;;;;;;;;;;;;;;5.38;100.00;103130.03;5009538;28;19940;-70
2023/12/18 08:50:39;;;;;;;;;;;;;;;5.32;100.00;103119.50;5006545;28;19932;-70
2023/12/18 08:53:04;;;;;;;;;;;;;;;5.29;100.00;103100.91;5012391;28;19927;-71
2023/12/18 08:55:29;;;;;;;;;;;;;;;5.34;100.00;103117.69;5006761;28;19939;-71
2023/12/18 08:57:54;;;;;;;;;;;;;;;5.38;100.00;103122.03;5008110;28;19968;-72
2023/12/18 09:00:19;;;;;;;;;;;;;;;5.36;100.00;103121.19;5005673;28;20012;-72
2023/12/18 09:02:45;;;;;;;;;;;;;;;5.34;100.00;103101.69;5013749;28;19921;-71
2023/12/18 09:05:10;;;;;;;;;;;;;;;5.41;100.00;103107.78;5010270;28;19929;-70
2023/12/18 09:07:35;;;;;;;;;;;;;;;5.46;100.00;103110.34;5011966;28;19921;-70
2023/12/18 09:10:00;;;;;;;;;;;;;;;5.52;100.00;103113.78;5007649;28;20671;-72
2023/12/18 09:12:26;;;;;;;;;;;;;;;5.51;100.00;103114.69;5009125;28;20387;-70
2023/12/18 09:14:51;;;;;;;;;;;;;;;5.59;100.00;103117.19;5005187;28;19973;-72
2023/12/18 09:17:16;;;;;;;;;;;;;;;5.48;100.00;103113.84;5014892;28;20015;-72
2023/12/18 09:19:41;;;;;;;;;;;;;;;5.60;100.00;103118.06;5011946;28;19928;-71
2023/12/18 09:22:07;;;;;;;;;;;;;;;5.53;100.00;103119.97;5017318;28;19944;-73
2023/12/18 09:24:32;;;;;;;;;;;;;;;5.63;100.00;103121.56;5017087;28;19928;-71
2023/12/18 09:26:57;;;;;;;;;;;;;;;5.62;100.00;103118.91;5014851;28;19917;-72
2023/12/18 09:29:23;;;;;;;;;;;;;;;5.65;100.00;103125.06;4995872;28;20080;-70
2023/12/18 09:31:48;;;;;;;;;;;;;;;5.64;100.00;103125.09;5014633;28;19917;-71
2023/12/18 09:34:14;;;;;;;;;;;;;;;5.68;100.00;103116.13;5012902;28;19953;-72
2023/12/18 09:36:39;;;;;;;;;;;;;;;5.68;100.00;103125.00;5010034;28;20792;-72
2023/12/18 09:39:04;;;;;;;;;;;;;;;5.76;100.00;103118.63;5015344;28;20248;-71
2023/12/18 09:41:29;;;;;;;;;;;;;;;5.83;100.00;103112.25;5006714;28;19956;-72
2023/12/18 09:43:55;;;;;;;;;;;;;;;5.90;100.00;103118.34;5014165;28;19999;-71
2023/12/18 09:46:24;;;;;;;;;;;;;;;5.90;100.00;103119.22;5012001;28;20386;-70
2023/12/18 09:48:49;;;;;;;;;;;;;;;5.91;100.00;103120.97;5005781;28;19925;-71
2023/12/18 09:51:16;;;;;;;;;;;;;;;5.82;100.00;103115.84;5012442;28;19928;-70
2023/12/18 09:53:42;;;;;;;;;;;;;;;5.75;100.00;103115.09;5018128;28;19998;-71
2023/12/18 09:56:07;;;;;;;;;;;;;;;5.72;100.00;103115.16;5010933;28;20396;-72
2023/12/18 09:58:32;;;;;;;;;;;;;;;5.80;100.00;103105.22;5011482;28;19921;-72
2023/12/18 10:00:58;;;;;;;;;;;;;;;5.86;100.00;103109.53;5016692;28;20356;-71
2023/12/18 10:03:23;;;;;;;;;;;;;;;5.91;100.00;103110.31;5010914;28;20439;-70
2023/12/18 10:05:48;;;;;;;;;;;;;;;5.84;100.00;103098.03;5013490;28;19925;-70
2023/12/18 10:08:14;;;;;;;;;;;;;;;5.96;100.00;103096.88;5019655;28;19920;-72
2023/12/18 10:10:39;;;;;;;;;;;;;;;5.95;100.00;103089.78;4999329;28;20961;-71
2023/12/18 10:13:06;;;;;;;;;;;;;;;5.94;100.00;103091.59;5023266;28;20356;-71
2023/12/18 10:15:33;;;;;;;;;;;;;;;5.95;100.00;103096.00;5025327;28;19963;-69
2023/12/18 10:17:58;;;;;;;;;;;;;;;5.84;100.00;103087.34;5013332;28;19921;-71
2023/12/18 10:20:24;;;;;;;;;;;;;;;5.93;100.00;103087.16;5017019;28;19928;-71
2023/12/18 10:22:49;;;;;;;;;;;;;;;5.91;100.00;103098.75;5007320;28;19947;-69
2023/12/18 10:25:14;;;;;;;;;;;;;;;5.94;100.00;103088.03;5007551;28;20318;-69
2023/12/18 10:27:39;;;;;;;;;;;;;;;6.00;100.00;103083.47;5013747;28;20573;-72
2023/12/18 10:30:05;;;;;;;;;;;;;;;6.02;100.00;103085.22;5014481;28;20367;-71
2023/12/18 10:32:31;;;;;;;;;;;;;;;6.07;100.00;103092.22;5000301;28;19921;-70
2023/12/18 10:34:56;;;;;;;;;;;;;;;6.08;100.00;103085.97;5011538;28;20397;-71
2023/12/18 10:37:25;;;;;;;;;;;;;;;6.14;100.00;103087.63;5017709;28;19925;-70
2023/12/18 10:39:53;;;;;;;;;;;;;;;6.15;100.00;103089.38;5017630;28;19968;-70
2023/12/18 10:42:27;;;;;;;;;;;;;;;6.13;100.00;103075.19;4998042;28;19970;-71
2023/12/18 10:44:53;;;;;;;;;;;;;;;6.22;100.00;103072.31;5018100;28;19967;-71
2023/12/18 10:47:18;;;;;;;;;;;;;;;6.20;100.00;103066.16;5011949;28;19920;-70
2023/12/18 10:49:43;;;;;;;;;;;;;;;6.16;100.00;103045.78;5014279;28;19921;-71
2023/12/18 10:52:09;;;;;;;;;;;;;;;6.15;100.00;103063.56;5014286;28;19956;-69
2023/12/18 10:54:34;;;;;;;;;;;;;;;6.14;100.00;103058.28;5022522;28;20024;-72
2023/12/18 10:56:59;;;;;;;;;;;;;;;6.19;100.00;103055.50;5016327;28;19921;-72
2023/12/18 10:59:25;;;;;;;;;;;;;;;6.25;100.00;103061.56;5012880;28;19927;-71
2023/12/18 11:01:50;;;;;;;;;;;;;;;6.35;100.00;103064.91;5011481;28;20257;-71
2023/12/18 11:04:18;;;;;;;;;;;;;;;6.33;100.00;103058.72;5014095;28;19967;-70
2023/12/18 11:06:43;;;;;;;;;;;;;;;6.47;100.00;103042.38;5009274;28;20003;-72
2023/12/18 11:09:08;;;;;;;;;;;;;;;6.47;100.00;103044.16;5013446;28;20019;-71
2023/12/18 11:11:34;;;;;;;;;;;;;;;6.54;100.00;103046.63;5012853;28;20275;-71
2023/12/18 11:14:19;;;;;;;;;;;;;;;6.51;100.00;103046.69;4995799;28;20378;-71
2023/12/18 11:16:55;;;;;;;;;;;;;;;6.62;100.00;103034.88;5033172;28;19928;-72
2023/12/18 11:19:24;;;;;;;;;;;;;;;6.59;100.00;103042.03;5015809;28;20171;-72
2023/12/18 11:21:49;;;;;;;;;;;;;;;6.32;100.00;103032.97;5016477;28;19921;-71
2023/12/18 11:24:15;;;;;;;;;;;;;;;6.44;100.00;103037.09;4998640;28;19921;-70
2023/12/18 11:26:40;;;;;;;;;;;;;;;6.43;100.00;103040.69;5009929;28;19979;-70
2023/12/18 11:29:25;;;;;;;;;;;;;;;6.30;100.00;103032.13;4995518;28;19928;-70
2023/12/18 11:31:52;;;;;;;;;;;;;;;6.28;100.00;103037.47;5016882;28;19917;-74
2023/12/18 11:34:18;;;;;;;;;;;;;;;6.38;100.00;103034.59;5014622;28;19932;-69
2023/12/18 11:36:43;;;;;;;;;;;;;;;6.21;100.00;103032.31;5012218;28;19932;-70
2023/12/18 11:39:08;;;;;;;;;;;;;;;6.34;100.00;103039.13;5012095;28;20074;-72
2023/12/18 11:41:37;;;;;;;;;;;;;;;6.20;100.00;103042.13;4996818;28;19924;-69
2023/12/18 11:44:06;;;;;;;;;;;;;;;6.24;100.00;103034.94;5013159;28;19921;-70
2023/12/18 11:46:32;;;;;;;;;;;;;;;6.22;100.00;103026.06;5007627;28;19961;-70
2023/12/18 11:48:57;;;;;;;;;;;;;;;6.23;100.00;103006.50;5011322;28;20324;-72
2023/12/18 11:51:23;;;;;;;;;;;;;;;6.19;100.00;103021.72;4997920;28;19925;-72
2023/12/18 11:53:56;;;;;;;;;;;;;;;6.15;100.00;103012.03;5009317;28;19929;-72
2023/12/18 11:56:22;;;;;;;;;;;;;;;6.20;100.00;103011.91;5011523;28;19952;-70
2023/12/18 11:58:47;;;;;;;;;;;;;;;6.20;100.00;103004.78;5012660;28;19925;-71
2023/12/18 12:01:13;;;;;;;;;;;;;;;6.35;100.00;103006.19;5012751;28;19968;-70
2023/12/18 12:03:38;;;;;;;;;;;;;;;6.39;100.00;102999.84;5011774;28;19921;-72
2023/12/18 12:06:06;;;;;;;;;;;;;;;6.37;100.00;103003.47;5011349;28;19971;-70
2023/12/18 12:08:31;;;;;;;;;;;;;;;6.32;100.00;103000.94;5014166;28;19968;-71
2023/12/18 12:10:59;;;;;;;;;;;;;;;6.30;100.00;102995.63;5010388;28;19925;-73
2023/12/18 12:13:25;;;;;;;;;;;;;;;6.22;100.00;102999.41;5012291;28;20692;-70
2023/12/18 12:15:57;;;;;;;;;;;;;;;6.12;100.00;102998.75;4994732;28;19921;-71
2023/12/18 12:18:28;;;;;;;;;;;;;;;6.18;100.00;103006.63;4995532;28;20129;-71
2023/12/18 12:20:53;;;;;;;;;;;;;;;6.13;100.00;103003.19;5001652;28;20020;-71
2023/12/18 12:23:19;;;;;;;;;;;;;;;6.05;100.00;103000.69;5009822;28;19999;-72
2023/12/18 12:25:46;;;;;;;;;;;;;;;6.12;100.00;102983.63;4995862;28;19967;-70
2023/12/18 12:28:11;;;;;;;;;;;;;;;6.17;100.00;102988.84;5010798;28;20398;-71